sensor_id;sensor_type;location;lat;lon;timestamp;P1;durP1;ratioP1;P2;durP2;ratioP2
59159;SDS011;44941;45.058;20.076;2023-04-25T00:01:37;11.25;;;7.00;;
59159;SDS011;44941;45.058;20.076;2023-04-25T00:04:04;11.75;;;7.28;;
59159;SDS011;44941;45.058;20.076;2023-04-25T00:06:36;10.80;;;7.35;;
59159;SDS011;44941;45.058;20.076;2023-04-25T00:09:06;9.38;;;7.53;;
59159;SDS011;44941;45.058;20.076;2023-04-25T00:11:34;12.63;;;7.82;;
59159;SDS011;44941;45.058;20.076;2023-04-25T00:14:00;14.63;;;7.97;;
59159;SDS011;44941;45.058;20.076;2023-04-25T00:19:30;11.90;;;8.55;;
59159;SDS011;44941;45.058;20.076;2023-04-25T00:21:57;13.13;;;8.88;;
59159;SDS011;44941;45.058;20.076;2023-04-25T00:24:23;11.52;;;8.70;;
59159;SDS011;44941;45.058;20.076;2023-04-25T00:26:49;12.93;;;8.50;;
59159;SDS011;44941;45.058;20.076;2023-04-25T00:29:16;13.57;;;8.93;;
59159;SDS011;44941;45.058;20.076;2023-04-25T00:31:42;12.57;;;8.60;;
59159;SDS011;44941;45.058;20.076;2023-04-25T00:34:08;12.73;;;8.48;;
59159;SDS011;44941;45.058;20.076;2023-04-25T00:36:34;12.57;;;9.00;;
59159;SDS011;44941;45.058;20.076;2023-04-25T00:39:01;10.95;;;9.07;;
59159;SDS011;44941;45.058;20.076;2023-04-25T00:41:29;12.63;;;8.63;;
59159;SDS011;44941;45.058;20.076;2023-04-25T00:43:55;10.70;;;9.07;;
59159;SDS011;44941;45.058;20.076;2023-04-25T00:46:22;12.60;;;9.30;;
59159;SDS011;44941;45.058;20.076;2023-04-25T00:48:48;11.35;;;9.07;;
59159;SDS011;44941;45.058;20.076;2023-04-25T00:51:16;15.02;;;9.27;;
59159;SDS011;44941;45.058;20.076;2023-04-25T00:53:42;12.50;;;9.32;;
59159;SDS011;44941;45.058;20.076;2023-04-25T00:56:08;11.57;;;8.63;;
59159;SDS011;44941;45.058;20.076;2023-04-25T00:58:35;11.23;;;8.23;;
59159;SDS011;44941;45.058;20.076;2023-04-25T01:01:13;12.35;;;7.50;;
59159;SDS011;44941;45.058;20.076;2023-04-25T01:03:39;12.10;;;8.85;;
59159;SDS011;44941;45.058;20.076;2023-04-25T01:06:09;10.40;;;8.05;;
59159;SDS011;44941;45.058;20.076;2023-04-25T01:08:38;10.38;;;8.40;;
59159;SDS011;44941;45.058;20.076;2023-04-25T01:11:05;10.38;;;7.90;;
59159;SDS011;44941;45.058;20.076;2023-04-25T01:13:31;13.38;;;8.13;;
59159;SDS011;44941;45.058;20.076;2023-04-25T01:18:41;12.25;;;7.50;;
59159;SDS011;44941;45.058;20.076;2023-04-25T01:21:08;10.57;;;7.85;;
59159;SDS011;44941;45.058;20.076;2023-04-25T01:23:35;11.65;;;7.57;;
59159;SDS011;44941;45.058;20.076;2023-04-25T01:26:01;9.40;;;7.40;;
59159;SDS011;44941;45.058;20.076;2023-04-25T01:28:30;9.43;;;7.60;;
59159;SDS011;44941;45.058;20.076;2023-04-25T01:31:06;10.20;;;7.57;;
59159;SDS011;44941;45.058;20.076;2023-04-25T01:33:33;11.02;;;7.63;;
59159;SDS011;44941;45.058;20.076;2023-04-25T01:35:59;10.43;;;7.22;;
59159;SDS011;44941;45.058;20.076;2023-04-25T01:38:25;10.00;;;6.95;;
59159;SDS011;44941;45.058;20.076;2023-04-25T01:40:51;9.43;;;6.82;;
59159;SDS011;44941;45.058;20.076;2023-04-25T01:43:17;12.05;;;7.10;;
59159;SDS011;44941;45.058;20.076;2023-04-25T01:45:44;9.65;;;6.63;;
59159;SDS011;44941;45.058;20.076;2023-04-25T01:48:10;9.18;;;6.63;;
59159;SDS011;44941;45.058;20.076;2023-04-25T01:50:37;8.45;;;5.32;;
59159;SDS011;44941;45.058;20.076;2023-04-25T01:53:04;10.55;;;4.80;;
59159;SDS011;44941;45.058;20.076;2023-04-25T01:55:30;7.57;;;4.85;;
59159;SDS011;44941;45.058;20.076;2023-04-25T01:57:56;7.13;;;4.05;;
59159;SDS011;44941;45.058;20.076;2023-04-25T02:00:23;6.60;;;3.65;;
59159;SDS011;44941;45.058;20.076;2023-04-25T02:02:49;6.55;;;3.50;;
59159;SDS011;44941;45.058;20.076;2023-04-25T02:05:16;7.70;;;3.50;;
59159;SDS011;44941;45.058;20.076;2023-04-25T02:07:42;6.63;;;3.38;;
59159;SDS011;44941;45.058;20.076;2023-04-25T02:10:08;5.28;;;2.95;;
59159;SDS011;44941;45.058;20.076;2023-04-25T02:12:35;6.63;;;3.15;;
59159;SDS011;44941;45.058;20.076;2023-04-25T02:15:01;6.15;;;3.20;;
59159;SDS011;44941;45.058;20.076;2023-04-25T02:17:30;5.63;;;3.38;;
59159;SDS011;44941;45.058;20.076;2023-04-25T02:19:57;5.78;;;2.83;;
59159;SDS011;44941;45.058;20.076;2023-04-25T02:22:23;5.88;;;3.10;;
59159;SDS011;44941;45.058;20.076;2023-04-25T02:24:52;6.13;;;2.97;;
59159;SDS011;44941;45.058;20.076;2023-04-25T02:27:19;6.10;;;3.28;;
59159;SDS011;44941;45.058;20.076;2023-04-25T02:29:45;9.15;;;3.42;;
59159;SDS011;44941;45.058;20.076;2023-04-25T02:32:11;4.88;;;2.78;;
59159;SDS011;44941;45.058;20.076;2023-04-25T02:34:37;5.65;;;3.10;;
59159;SDS011;44941;45.058;20.076;2023-04-25T02:37:03;7.38;;;3.20;;
59159;SDS011;44941;45.058;20.076;2023-04-25T02:39:29;5.25;;;2.72;;
59159;SDS011;44941;45.058;20.076;2023-04-25T02:41:55;6.53;;;2.55;;
59159;SDS011;44941;45.058;20.076;2023-04-25T02:44:22;4.55;;;2.58;;
59159;SDS011;44941;45.058;20.076;2023-04-25T02:46:48;5.82;;;2.50;;
59159;SDS011;44941;45.058;20.076;2023-04-25T02:49:14;6.53;;;3.05;;
59159;SDS011;44941;45.058;20.076;2023-04-25T02:51:40;5.28;;;2.67;;
59159;SDS011;44941;45.058;20.076;2023-04-25T02:54:06;6.50;;;2.70;;
59159;SDS011;44941;45.058;20.076;2023-04-25T02:56:32;4.25;;;2.30;;
59159;SDS011;44941;45.058;20.076;2023-04-25T02:58:58;9.43;;;2.30;;
59159;SDS011;44941;45.058;20.076;2023-04-25T03:01:24;5.75;;;2.47;;
59159;SDS011;44941;45.058;20.076;2023-04-25T03:03:50;5.30;;;2.55;;
59159;SDS011;44941;45.058;20.076;2023-04-25T03:06:18;5.97;;;2.90;;
59159;SDS011;44941;45.058;20.076;2023-04-25T03:08:44;7.18;;;2.60;;
59159;SDS011;44941;45.058;20.076;2023-04-25T03:11:10;4.72;;;2.40;;
59159;SDS011;44941;45.058;20.076;2023-04-25T03:13:36;3.97;;;2.25;;
59159;SDS011;44941;45.058;20.076;2023-04-25T03:16:02;4.63;;;2.30;;
59159;SDS011;44941;45.058;20.076;2023-04-25T03:18:28;5.55;;;2.30;;
59159;SDS011;44941;45.058;20.076;2023-04-25T03:20:54;3.83;;;1.75;;
59159;SDS011;44941;45.058;20.076;2023-04-25T03:23:20;3.47;;;2.03;;
59159;SDS011;44941;45.058;20.076;2023-04-25T03:25:47;3.85;;;1.70;;
59159;SDS011;44941;45.058;20.076;2023-04-25T03:28:13;4.55;;;1.80;;
59159;SDS011;44941;45.058;20.076;2023-04-25T03:30:39;3.67;;;1.90;;
59159;SDS011;44941;45.058;20.076;2023-04-25T03:33:05;4.03;;;2.10;;
59159;SDS011;44941;45.058;20.076;2023-04-25T03:35:31;3.33;;;1.60;;
59159;SDS011;44941;45.058;20.076;2023-04-25T03:37:57;3.25;;;1.70;;
59159;SDS011;44941;45.058;20.076;2023-04-25T03:40:23;3.28;;;1.80;;
59159;SDS011;44941;45.058;20.076;2023-04-25T03:42:50;3.42;;;1.80;;
59159;SDS011;44941;45.058;20.076;2023-04-25T03:45:16;3.88;;;1.85;;
59159;SDS011;44941;45.058;20.076;2023-04-25T03:47:57;3.35;;;1.60;;
59159;SDS011;44941;45.058;20.076;2023-04-25T03:50:23;5.55;;;1.83;;
59159;SDS011;44941;45.058;20.076;2023-04-25T03:52:49;3.10;;;1.30;;
59159;SDS011;44941;45.058;20.076;2023-04-25T03:55:15;4.72;;;1.60;;
59159;SDS011;44941;45.058;20.076;2023-04-25T03:57:42;4.43;;;1.77;;
59159;SDS011;44941;45.058;20.076;2023-04-25T04:00:08;4.88;;;2.00;;
59159;SDS011;44941;45.058;20.076;2023-04-25T04:02:34;6.20;;;2.00;;
59159;SDS011;44941;45.058;20.076;2023-04-25T04:05:02;6.45;;;1.92;;
59159;SDS011;44941;45.058;20.076;2023-04-25T04:07:28;6.22;;;2.30;;
59159;SDS011;44941;45.058;20.076;2023-04-25T04:09:57;4.35;;;2.30;;
59159;SDS011;44941;45.058;20.076;2023-04-25T04:12:23;5.97;;;2.40;;
59159;SDS011;44941;45.058;20.076;2023-04-25T04:14:49;5.15;;;2.08;;
59159;SDS011;44941;45.058;20.076;2023-04-25T04:17:16;3.80;;;2.00;;
59159;SDS011;44941;45.058;20.076;2023-04-25T04:19:42;5.27;;;1.93;;
59159;SDS011;44941;45.058;20.076;2023-04-25T04:22:09;4.22;;;2.00;;
59159;SDS011;44941;45.058;20.076;2023-04-25T04:24:35;3.45;;;1.67;;
59159;SDS011;44941;45.058;20.076;2023-04-25T04:27:01;4.88;;;2.28;;
59159;SDS011;44941;45.058;20.076;2023-04-25T04:29:28;3.95;;;1.60;;
59159;SDS011;44941;45.058;20.076;2023-04-25T04:31:54;5.05;;;2.13;;
59159;SDS011;44941;45.058;20.076;2023-04-25T04:34:20;5.38;;;2.20;;
59159;SDS011;44941;45.058;20.076;2023-04-25T04:36:46;5.32;;;2.67;;
59159;SDS011;44941;45.058;20.076;2023-04-25T04:39:13;7.38;;;1.90;;
59159;SDS011;44941;45.058;20.076;2023-04-25T04:41:39;4.22;;;2.25;;
59159;SDS011;44941;45.058;20.076;2023-04-25T04:44:05;5.80;;;2.58;;
59159;SDS011;44941;45.058;20.076;2023-04-25T04:49:07;4.00;;;2.30;;
59159;SDS011;44941;45.058;20.076;2023-04-25T04:51:39;4.75;;;2.45;;
59159;SDS011;44941;45.058;20.076;2023-04-25T04:54:06;5.35;;;2.58;;
59159;SDS011;44941;45.058;20.076;2023-04-25T04:56:32;5.07;;;2.50;;
59159;SDS011;44941;45.058;20.076;2023-04-25T04:58:58;4.90;;;2.40;;
59159;SDS011;44941;45.058;20.076;2023-04-25T05:01:25;5.78;;;2.28;;
59159;SDS011;44941;45.058;20.076;2023-04-25T05:03:51;5.07;;;2.00;;
59159;SDS011;44941;45.058;20.076;2023-04-25T05:06:18;4.80;;;2.10;;
59159;SDS011;44941;45.058;20.076;2023-04-25T05:08:44;6.90;;;2.30;;
59159;SDS011;44941;45.058;20.076;2023-04-25T05:11:10;3.97;;;2.13;;
59159;SDS011;44941;45.058;20.076;2023-04-25T05:13:36;3.33;;;1.83;;
59159;SDS011;44941;45.058;20.076;2023-04-25T05:16:03;5.13;;;1.95;;
59159;SDS011;44941;45.058;20.076;2023-04-25T05:18:29;5.57;;;2.00;;
59159;SDS011;44941;45.058;20.076;2023-04-25T05:20:55;4.63;;;2.08;;
59159;SDS011;44941;45.058;20.076;2023-04-25T05:23:21;4.50;;;2.03;;
59159;SDS011;44941;45.058;20.076;2023-04-25T05:25:47;3.80;;;2.03;;
59159;SDS011;44941;45.058;20.076;2023-04-25T05:28:13;4.53;;;2.40;;
59159;SDS011;44941;45.058;20.076;2023-04-25T05:30:39;3.45;;;1.92;;
59159;SDS011;44941;45.058;20.076;2023-04-25T05:33:05;7.95;;;2.28;;
59159;SDS011;44941;45.058;20.076;2023-04-25T05:35:32;5.40;;;2.00;;
59159;SDS011;44941;45.058;20.076;2023-04-25T05:37:58;4.38;;;1.90;;
59159;SDS011;44941;45.058;20.076;2023-04-25T05:40:24;4.35;;;2.20;;
59159;SDS011;44941;45.058;20.076;2023-04-25T05:42:50;4.88;;;1.95;;
59159;SDS011;44941;45.058;20.076;2023-04-25T05:45:16;3.53;;;1.92;;
59159;SDS011;44941;45.058;20.076;2023-04-25T05:47:42;4.60;;;2.13;;
59159;SDS011;44941;45.058;20.076;2023-04-25T05:50:09;3.70;;;1.80;;
59159;SDS011;44941;45.058;20.076;2023-04-25T05:52:35;3.92;;;1.90;;
59159;SDS011;44941;45.058;20.076;2023-04-25T05:55:01;3.72;;;1.92;;
59159;SDS011;44941;45.058;20.076;2023-04-25T05:57:27;2.80;;;1.60;;
59159;SDS011;44941;45.058;20.076;2023-04-25T05:59:53;3.13;;;1.75;;
59159;SDS011;44941;45.058;20.076;2023-04-25T06:02:20;4.88;;;1.95;;
59159;SDS011;44941;45.058;20.076;2023-04-25T06:04:46;6.15;;;1.90;;
59159;SDS011;44941;45.058;20.076;2023-04-25T06:07:12;3.70;;;1.50;;
59159;SDS011;44941;45.058;20.076;2023-04-25T06:09:38;4.20;;;1.67;;
59159;SDS011;44941;45.058;20.076;2023-04-25T06:12:05;8.77;;;1.80;;
59159;SDS011;44941;45.058;20.076;2023-04-25T06:14:34;6.88;;;1.75;;
59159;SDS011;44941;45.058;20.076;2023-04-25T06:17:03;4.00;;;1.60;;
59159;SDS011;44941;45.058;20.076;2023-04-25T06:19:33;5.15;;;1.98;;
59159;SDS011;44941;45.058;20.076;2023-04-25T06:22:00;3.75;;;1.73;;
59159;SDS011;44941;45.058;20.076;2023-04-25T06:24:26;3.08;;;1.63;;
59159;SDS011;44941;45.058;20.076;2023-04-25T06:26:52;6.30;;;1.88;;
59159;SDS011;44941;45.058;20.076;2023-04-25T06:29:30;4.75;;;1.85;;
59159;SDS011;44941;45.058;20.076;2023-04-25T06:31:57;3.67;;;1.95;;
59159;SDS011;44941;45.058;20.076;2023-04-25T06:34:35;4.88;;;1.88;;
59159;SDS011;44941;45.058;20.076;2023-04-25T06:37:01;5.95;;;1.75;;
59159;SDS011;44941;45.058;20.076;2023-04-25T06:39:27;4.20;;;1.65;;
59159;SDS011;44941;45.058;20.076;2023-04-25T06:41:53;3.45;;;1.73;;
59159;SDS011;44941;45.058;20.076;2023-04-25T06:44:19;5.53;;;1.60;;
59159;SDS011;44941;45.058;20.076;2023-04-25T06:46:48;7.95;;;2.00;;
59159;SDS011;44941;45.058;20.076;2023-04-25T06:49:14;4.40;;;1.58;;
59159;SDS011;44941;45.058;20.076;2023-04-25T06:51:40;3.85;;;1.60;;
59159;SDS011;44941;45.058;20.076;2023-04-25T06:54:06;5.47;;;2.05;;
59159;SDS011;44941;45.058;20.076;2023-04-25T06:56:32;3.15;;;1.70;;
59159;SDS011;44941;45.058;20.076;2023-04-25T06:58:59;5.45;;;1.65;;
59159;SDS011;44941;45.058;20.076;2023-04-25T07:01:25;5.18;;;1.85;;
59159;SDS011;44941;45.058;20.076;2023-04-25T07:03:52;4.38;;;1.75;;
59159;SDS011;44941;45.058;20.076;2023-04-25T07:06:18;5.07;;;1.50;;
59159;SDS011;44941;45.058;20.076;2023-04-25T07:08:46;4.55;;;1.30;;
59159;SDS011;44941;45.058;20.076;2023-04-25T07:11:19;3.67;;;1.67;;
59159;SDS011;44941;45.058;20.076;2023-04-25T07:13:51;3.22;;;1.40;;
59159;SDS011;44941;45.058;20.076;2023-04-25T07:16:17;4.20;;;1.60;;
59159;SDS011;44941;45.058;20.076;2023-04-25T07:19:02;3.63;;;1.23;;
59159;SDS011;44941;45.058;20.076;2023-04-25T07:21:28;3.78;;;1.50;;
59159;SDS011;44941;45.058;20.076;2023-04-25T07:23:56;3.95;;;1.23;;
59159;SDS011;44941;45.058;20.076;2023-04-25T07:26:22;3.17;;;1.58;;
59159;SDS011;44941;45.058;20.076;2023-04-25T07:28:48;4.38;;;1.50;;
59159;SDS011;44941;45.058;20.076;2023-04-25T07:31:16;4.32;;;1.80;;
59159;SDS011;44941;45.058;20.076;2023-04-25T07:33:46;3.42;;;1.45;;
59159;SDS011;44941;45.058;20.076;2023-04-25T07:36:12;6.35;;;1.60;;
59159;SDS011;44941;45.058;20.076;2023-04-25T07:38:40;3.35;;;1.42;;
59159;SDS011;44941;45.058;20.076;2023-04-25T07:41:06;4.15;;;1.50;;
59159;SDS011;44941;45.058;20.076;2023-04-25T07:43:32;3.88;;;1.60;;
59159;SDS011;44941;45.058;20.076;2023-04-25T07:45:58;3.47;;;1.70;;
59159;SDS011;44941;45.058;20.076;2023-04-25T07:48:24;3.92;;;1.77;;
59159;SDS011;44941;45.058;20.076;2023-04-25T07:50:51;6.35;;;1.70;;
59159;SDS011;44941;45.058;20.076;2023-04-25T07:53:17;2.45;;;1.40;;
59159;SDS011;44941;45.058;20.076;2023-04-25T07:55:43;3.00;;;1.30;;
59159;SDS011;44941;45.058;20.076;2023-04-25T07:58:09;3.50;;;1.58;;
59159;SDS011;44941;45.058;20.076;2023-04-25T08:00:35;3.40;;;1.70;;
59159;SDS011;44941;45.058;20.076;2023-04-25T08:03:02;2.78;;;1.52;;
59159;SDS011;44941;45.058;20.076;2023-04-25T08:05:31;4.03;;;1.60;;
59159;SDS011;44941;45.058;20.076;2023-04-25T08:07:57;3.97;;;1.40;;
59159;SDS011;44941;45.058;20.076;2023-04-25T08:10:23;3.80;;;1.60;;
59159;SDS011;44941;45.058;20.076;2023-04-25T08:12:49;6.57;;;1.40;;
59159;SDS011;44941;45.058;20.076;2023-04-25T08:15:15;4.05;;;1.40;;
59159;SDS011;44941;45.058;20.076;2023-04-25T08:17:41;4.35;;;1.40;;
59159;SDS011;44941;45.058;20.076;2023-04-25T08:20:09;3.25;;;1.50;;
59159;SDS011;44941;45.058;20.076;2023-04-25T08:22:35;3.03;;;1.58;;
59159;SDS011;44941;45.058;20.076;2023-04-25T08:25:02;2.45;;;1.10;;
59159;SDS011;44941;45.058;20.076;2023-04-25T08:27:28;2.33;;;1.17;;
59159;SDS011;44941;45.058;20.076;2023-04-25T08:29:54;5.70;;;1.27;;
59159;SDS011;44941;45.058;20.076;2023-04-25T08:32:21;3.05;;;1.23;;
59159;SDS011;44941;45.058;20.076;2023-04-25T08:34:47;2.17;;;1.20;;
59159;SDS011;44941;45.058;20.076;2023-04-25T08:37:13;3.47;;;1.30;;
59159;SDS011;44941;45.058;20.076;2023-04-25T08:39:39;1.60;;;0.95;;
59159;SDS011;44941;45.058;20.076;2023-04-25T08:42:07;4.07;;;1.35;;
59159;SDS011;44941;45.058;20.076;2023-04-25T08:44:33;2.88;;;1.30;;
59159;SDS011;44941;45.058;20.076;2023-04-25T08:47:01;4.65;;;1.70;;
59159;SDS011;44941;45.058;20.076;2023-04-25T08:49:27;1.80;;;1.08;;
59159;SDS011;44941;45.058;20.076;2023-04-25T08:51:54;3.03;;;1.40;;
59159;SDS011;44941;45.058;20.076;2023-04-25T08:54:23;6.15;;;1.50;;
59159;SDS011;44941;45.058;20.076;2023-04-25T08:56:52;2.40;;;1.40;;
59159;SDS011;44941;45.058;20.076;2023-04-25T08:59:19;5.75;;;1.60;;
59159;SDS011;44941;45.058;20.076;2023-04-25T09:01:45;4.93;;;1.60;;
59159;SDS011;44941;45.058;20.076;2023-04-25T09:07:15;2.95;;;1.25;;
59159;SDS011;44941;45.058;20.076;2023-04-25T09:09:46;3.22;;;1.30;;
59159;SDS011;44941;45.058;20.076;2023-04-25T09:12:12;3.85;;;1.42;;
59159;SDS011;44941;45.058;20.076;2023-04-25T09:14:38;3.17;;;1.40;;
59159;SDS011;44941;45.058;20.076;2023-04-25T09:17:05;2.85;;;1.38;;
59159;SDS011;44941;45.058;20.076;2023-04-25T09:19:45;3.42;;;1.40;;
59159;SDS011;44941;45.058;20.076;2023-04-25T09:22:11;3.47;;;1.60;;
59159;SDS011;44941;45.058;20.076;2023-04-25T09:24:41;2.95;;;1.70;;
59159;SDS011;44941;45.058;20.076;2023-04-25T09:27:10;7.68;;;1.60;;
59159;SDS011;44941;45.058;20.076;2023-04-25T09:29:37;3.03;;;1.30;;
59159;SDS011;44941;45.058;20.076;2023-04-25T09:34:59;3.35;;;1.45;;
59159;SDS011;44941;45.058;20.076;2023-04-25T09:37:30;3.13;;;1.10;;
59159;SDS011;44941;45.058;20.076;2023-04-25T09:39:57;3.95;;;1.25;;
59159;SDS011;44941;45.058;20.076;2023-04-25T09:42:25;7.35;;;1.05;;
59159;SDS011;44941;45.058;20.076;2023-04-25T09:45:02;3.45;;;1.23;;
59159;SDS011;44941;45.058;20.076;2023-04-25T09:47:29;3.92;;;1.23;;
59159;SDS011;44941;45.058;20.076;2023-04-25T09:49:55;4.00;;;1.20;;
59159;SDS011;44941;45.058;20.076;2023-04-25T09:52:22;3.00;;;1.35;;
59159;SDS011;44941;45.058;20.076;2023-04-25T09:54:49;5.22;;;1.30;;
59159;SDS011;44941;45.058;20.076;2023-04-25T09:57:16;2.92;;;1.20;;
59159;SDS011;44941;45.058;20.076;2023-04-25T09:59:43;2.63;;;1.00;;
59159;SDS011;44941;45.058;20.076;2023-04-25T10:02:11;2.53;;;1.10;;
59159;SDS011;44941;45.058;20.076;2023-04-25T10:04:52;5.40;;;1.27;;
59159;SDS011;44941;45.058;20.076;2023-04-25T10:07:23;3.47;;;1.30;;
59159;SDS011;44941;45.058;20.076;2023-04-25T10:09:55;4.88;;;1.23;;
59159;SDS011;44941;45.058;20.076;2023-04-25T10:12:27;2.95;;;1.20;;
59159;SDS011;44941;45.058;20.076;2023-04-25T10:14:55;2.33;;;1.10;;
59159;SDS011;44941;45.058;20.076;2023-04-25T10:17:21;2.25;;;0.88;;
59159;SDS011;44941;45.058;20.076;2023-04-25T10:20:07;2.53;;;1.13;;
59159;SDS011;44941;45.058;20.076;2023-04-25T10:22:36;3.88;;;1.20;;
59159;SDS011;44941;45.058;20.076;2023-04-25T10:25:03;2.08;;;0.90;;
59159;SDS011;44941;45.058;20.076;2023-04-25T10:27:30;4.28;;;1.05;;
59159;SDS011;44941;45.058;20.076;2023-04-25T10:30:00;2.42;;;0.90;;
59159;SDS011;44941;45.058;20.076;2023-04-25T10:35:50;1.88;;;0.90;;
59159;SDS011;44941;45.058;20.076;2023-04-25T10:38:23;3.25;;;1.00;;
59159;SDS011;44941;45.058;20.076;2023-04-25T10:41:08;3.25;;;1.05;;
59159;SDS011;44941;45.058;20.076;2023-04-25T10:46:01;3.20;;;0.95;;
59159;SDS011;44941;45.058;20.076;2023-04-25T10:48:31;3.25;;;0.90;;
59159;SDS011;44941;45.058;20.076;2023-04-25T10:51:07;2.45;;;1.20;;
59159;SDS011;44941;45.058;20.076;2023-04-25T10:53:33;3.30;;;1.33;;
59159;SDS011;44941;45.058;20.076;2023-04-25T10:55:59;4.22;;;2.10;;
59159;SDS011;44941;45.058;20.076;2023-04-25T10:58:26;4.60;;;1.65;;
59159;SDS011;44941;45.058;20.076;2023-04-25T11:00:52;4.97;;;1.77;;
59159;SDS011;44941;45.058;20.076;2023-04-25T11:03:20;2.78;;;0.85;;
59159;SDS011;44941;45.058;20.076;2023-04-25T11:06:01;3.67;;;1.25;;
59159;SDS011;44941;45.058;20.076;2023-04-25T11:08:36;4.25;;;1.17;;
59159;SDS011;44941;45.058;20.076;2023-04-25T11:11:03;4.47;;;1.20;;
59159;SDS011;44941;45.058;20.076;2023-04-25T11:13:29;4.15;;;1.33;;
59159;SDS011;44941;45.058;20.076;2023-04-25T11:15:55;3.53;;;1.02;;
59159;SDS011;44941;45.058;20.076;2023-04-25T11:18:21;2.55;;;0.65;;
59159;SDS011;44941;45.058;20.076;2023-04-25T11:20:51;1.88;;;0.70;;
59159;SDS011;44941;45.058;20.076;2023-04-25T11:23:17;1.77;;;0.80;;
59159;SDS011;44941;45.058;20.076;2023-04-25T11:25:44;1.85;;;0.82;;
59159;SDS011;44941;45.058;20.076;2023-04-25T11:28:10;2.78;;;0.90;;
59159;SDS011;44941;45.058;20.076;2023-04-25T11:30:36;5.28;;;0.90;;
59159;SDS011;44941;45.058;20.076;2023-04-25T11:33:02;1.90;;;0.77;;
59159;SDS011;44941;45.058;20.076;2023-04-25T11:35:28;1.90;;;0.68;;
59159;SDS011;44941;45.058;20.076;2023-04-25T11:37:54;1.52;;;0.90;;
59159;SDS011;44941;45.058;20.076;2023-04-25T11:40:21;1.83;;;0.68;;
59159;SDS011;44941;45.058;20.076;2023-04-25T11:42:47;5.28;;;0.80;;
59159;SDS011;44941;45.058;20.076;2023-04-25T11:45:13;1.90;;;0.50;;
59159;SDS011;44941;45.058;20.076;2023-04-25T11:47:40;2.45;;;0.90;;
59159;SDS011;44941;45.058;20.076;2023-04-25T11:50:06;3.08;;;0.85;;
59159;SDS011;44941;45.058;20.076;2023-04-25T11:55:06;2.67;;;0.98;;
59159;SDS011;44941;45.058;20.076;2023-04-25T11:57:32;1.90;;;0.80;;
59159;SDS011;44941;45.058;20.076;2023-04-25T12:00:09;2.47;;;1.08;;
59159;SDS011;44941;45.058;20.076;2023-04-25T12:02:36;1.00;;;0.60;;
59159;SDS011;44941;45.058;20.076;2023-04-25T12:05:05;1.45;;;0.70;;
59159;SDS011;44941;45.058;20.076;2023-04-25T12:07:33;3.05;;;0.90;;
59159;SDS011;44941;45.058;20.076;2023-04-25T12:09:59;3.92;;;1.65;;
59159;SDS011;44941;45.058;20.076;2023-04-25T12:12:31;1.33;;;0.70;;
59159;SDS011;44941;45.058;20.076;2023-04-25T12:15:07;2.97;;;0.57;;
59159;SDS011;44941;45.058;20.076;2023-04-25T12:17:34;2.72;;;0.80;;
59159;SDS011;44941;45.058;20.076;2023-04-25T12:22:28;3.10;;;0.82;;
59159;SDS011;44941;45.058;20.076;2023-04-25T12:24:55;2.78;;;0.60;;
59159;SDS011;44941;45.058;20.076;2023-04-25T12:29:55;2.78;;;0.98;;
59159;SDS011;44941;45.058;20.076;2023-04-25T12:32:22;2.08;;;0.60;;
59159;SDS011;44941;45.058;20.076;2023-04-25T12:34:48;3.60;;;0.77;;
59159;SDS011;44941;45.058;20.076;2023-04-25T12:37:14;4.43;;;0.70;;
59159;SDS011;44941;45.058;20.076;2023-04-25T12:39:40;1.73;;;0.82;;
59159;SDS011;44941;45.058;20.076;2023-04-25T12:42:06;2.65;;;1.10;;
59159;SDS011;44941;45.058;20.076;2023-04-25T12:44:33;3.50;;;1.15;;
59159;SDS011;44941;45.058;20.076;2023-04-25T12:46:59;6.75;;;1.20;;
59159;SDS011;44941;45.058;20.076;2023-04-25T12:49:26;1.88;;;0.80;;
59159;SDS011;44941;45.058;20.076;2023-04-25T12:51:52;3.50;;;1.05;;
59159;SDS011;44941;45.058;20.076;2023-04-25T12:54:18;3.65;;;1.10;;
59159;SDS011;44941;45.058;20.076;2023-04-25T12:56:44;7.28;;;0.95;;
59159;SDS011;44941;45.058;20.076;2023-04-25T12:59:11;4.90;;;1.20;;
59159;SDS011;44941;45.058;20.076;2023-04-25T13:04:23;3.00;;;0.90;;
59159;SDS011;44941;45.058;20.076;2023-04-25T13:09:37;3.58;;;1.10;;
59159;SDS011;44941;45.058;20.076;2023-04-25T13:12:21;5.38;;;1.23;;
59159;SDS011;44941;45.058;20.076;2023-04-25T13:14:53;3.78;;;1.35;;
59159;SDS011;44941;45.058;20.076;2023-04-25T13:17:25;4.78;;;1.30;;
59159;SDS011;44941;45.058;20.076;2023-04-25T13:22:55;2.10;;;0.88;;
59159;SDS011;44941;45.058;20.076;2023-04-25T13:28:12;3.45;;;1.00;;
59159;SDS011;44941;45.058;20.076;2023-04-25T13:30:39;2.35;;;1.13;;
59159;SDS011;44941;45.058;20.076;2023-04-25T13:33:12;2.88;;;1.63;;
59159;SDS011;44941;45.058;20.076;2023-04-25T13:35:39;1.98;;;0.80;;
59159;SDS011;44941;45.058;20.076;2023-04-25T13:38:05;4.07;;;1.30;;
59159;SDS011;44941;45.058;20.076;2023-04-25T13:40:31;4.50;;;1.60;;
59159;SDS011;44941;45.058;20.076;2023-04-25T13:42:57;6.28;;;1.35;;
59159;SDS011;44941;45.058;20.076;2023-04-25T13:45:24;3.30;;;0.95;;
59159;SDS011;44941;45.058;20.076;2023-04-25T13:47:50;2.03;;;0.90;;
59159;SDS011;44941;45.058;20.076;2023-04-25T13:50:16;1.83;;;0.82;;
59159;SDS011;44941;45.058;20.076;2023-04-25T13:52:43;3.88;;;1.10;;
59159;SDS011;44941;45.058;20.076;2023-04-25T13:55:10;1.80;;;0.80;;
59159;SDS011;44941;45.058;20.076;2023-04-25T13:57:36;2.60;;;0.90;;
59159;SDS011;44941;45.058;20.076;2023-04-25T14:00:03;2.88;;;0.93;;
59159;SDS011;44941;45.058;20.076;2023-04-25T14:02:34;2.78;;;0.85;;
59159;SDS011;44941;45.058;20.076;2023-04-25T14:05:00;3.40;;;0.98;;
59159;SDS011;44941;45.058;20.076;2023-04-25T14:07:26;2.05;;;0.80;;
59159;SDS011;44941;45.058;20.076;2023-04-25T14:09:52;2.63;;;1.00;;
59159;SDS011;44941;45.058;20.076;2023-04-25T14:12:18;3.53;;;1.00;;
59159;SDS011;44941;45.058;20.076;2023-04-25T14:14:44;2.92;;;0.80;;
59159;SDS011;44941;45.058;20.076;2023-04-25T14:17:11;1.85;;;0.98;;
59159;SDS011;44941;45.058;20.076;2023-04-25T14:19:37;3.65;;;1.20;;
59159;SDS011;44941;45.058;20.076;2023-04-25T14:22:08;2.47;;;1.00;;
59159;SDS011;44941;45.058;20.076;2023-04-25T14:24:34;1.92;;;0.90;;
59159;SDS011;44941;45.058;20.076;2023-04-25T14:27:06;2.67;;;0.80;;
59159;SDS011;44941;45.058;20.076;2023-04-25T14:29:32;6.07;;;0.90;;
59159;SDS011;44941;45.058;20.076;2023-04-25T14:31:58;2.03;;;0.68;;
59159;SDS011;44941;45.058;20.076;2023-04-25T14:34:25;4.07;;;1.08;;
59159;SDS011;44941;45.058;20.076;2023-04-25T14:36:51;3.03;;;0.75;;
59159;SDS011;44941;45.058;20.076;2023-04-25T14:39:18;2.42;;;0.80;;
59159;SDS011;44941;45.058;20.076;2023-04-25T14:41:44;4.30;;;2.22;;
59159;SDS011;44941;45.058;20.076;2023-04-25T14:44:10;3.88;;;0.93;;
59159;SDS011;44941;45.058;20.076;2023-04-25T14:46:36;2.03;;;0.80;;
59159;SDS011;44941;45.058;20.076;2023-04-25T14:49:03;2.30;;;0.80;;
59159;SDS011;44941;45.058;20.076;2023-04-25T14:51:29;1.70;;;0.82;;
59159;SDS011;44941;45.058;20.076;2023-04-25T14:53:56;3.38;;;0.70;;
59159;SDS011;44941;45.058;20.076;2023-04-25T14:56:22;2.03;;;0.75;;
59159;SDS011;44941;45.058;20.076;2023-04-25T14:58:48;3.88;;;1.00;;
59159;SDS011;44941;45.058;20.076;2023-04-25T15:01:14;3.85;;;1.23;;
59159;SDS011;44941;45.058;20.076;2023-04-25T15:03:41;3.72;;;0.95;;
59159;SDS011;44941;45.058;20.076;2023-04-25T15:06:07;3.25;;;1.08;;
59159;SDS011;44941;45.058;20.076;2023-04-25T15:08:33;4.60;;;1.25;;
59159;SDS011;44941;45.058;20.076;2023-04-25T15:11:00;2.58;;;1.00;;
59159;SDS011;44941;45.058;20.076;2023-04-25T15:13:28;3.20;;;1.42;;